Time;durP1;ratioP1;P1;durP2;ratioP2;P2;SDS_P1;SDS_P2;PMS_P1;PMS_P2;Temp;Humidity;BMP_temperature;BMP_pressure;BME280_temperature;BME280_humidity;BME280_pressure;Samples;Min_cycle;Max_cycle;Signal;HPM_P1;HPM_P2
2021/12/26 00:00:58;;;;;;;4.38;2.30;;;-1.70;99.90;;;;;;5025212;28;20210;-78
2021/12/26 00:03:26;;;;;;;3.00;1.63;;;-1.70;99.90;;;;;;5028291;28;20238;-78
2021/12/26 00:05:55;;;;;;;5.18;2.45;;;-1.60;99.90;;;;;;5023846;28;20202;-78
2021/12/26 00:08:23;;;;;;;5.40;2.40;;;-1.50;99.90;;;;;;5029349;28;20225;-79
2021/12/26 00:10:51;;;;;;;3.63;1.88;;;-1.60;99.90;;;;;;5032803;28;20220;-77
2021/12/26 00:13:19;;;;;;;3.30;1.75;;;-1.40;99.90;;;;;;5033236;28;20668;-78
2021/12/26 00:15:46;;;;;;;6.60;2.40;;;-1.30;99.90;;;;;;5033009;28;20198;-78
2021/12/26 00:18:13;;;;;;;3.50;1.75;;;-1.30;99.90;;;;;;5029314;28;20203;-78
2021/12/26 00:20:41;;;;;;;3.42;2.15;;;-1.30;99.90;;;;;;5023288;28;20208;-78
2021/12/26 00:23:09;;;;;;;3.63;2.00;;;-1.30;99.90;;;;;;5032560;28;20226;-78
2021/12/26 00:25:38;;;;;;;5.25;2.30;;;-1.30;99.90;;;;;;5032439;28;20579;-78
2021/12/26 00:28:05;;;;;;;3.75;1.70;;;-1.40;99.90;;;;;;5039478;28;20269;-78
2021/12/26 00:30:32;;;;;;;3.13;1.95;;;-1.30;99.90;;;;;;5032727;28;20701;-78
2021/12/26 00:32:59;;;;;;;3.83;2.22;;;-1.20;99.90;;;;;;5034789;28;20828;-78
2021/12/26 00:35:26;;;;;;;4.28;2.03;;;-1.20;99.90;;;;;;5043956;28;20202;-77
2021/12/26 00:37:54;;;;;;;3.58;1.70;;;-1.20;99.90;;;;;;5032430;28;20203;-78
2021/12/26 00:40:22;;;;;;;4.25;2.15;;;-1.20;99.90;;;;;;5046029;28;20205;-79
2021/12/26 00:42:51;;;;;;;2.80;1.90;;;-1.10;99.90;;;;;;5038849;28;20225;-79
2021/12/26 00:45:18;;;;;;;5.80;2.55;;;-1.20;99.90;;;;;;5038814;28;20200;-79
2021/12/26 00:47:45;;;;;;;3.40;1.85;;;-1.20;99.90;;;;;;5028824;28;20226;-79
2021/12/26 00:50:16;;;;;;;3.40;2.10;;;-1.20;99.90;;;;;;5037178;28;20207;-79
2021/12/26 00:52:43;;;;;;;4.43;2.65;;;-1.20;99.90;;;;;;5036363;28;20222;-79
2021/12/26 00:55:13;;;;;;;6.40;2.25;;;-1.20;99.90;;;;;;5038319;28;20205;-78
2021/12/26 00:57:40;;;;;;;4.82;2.25;;;-1.20;99.90;;;;;;5036330;28;20463;-78
2021/12/26 01:00:14;;;;;;;3.38;2.30;;;-1.10;99.90;;;;;;5038086;28;20566;-79
2021/12/26 01:02:41;;;;;;;3.70;1.75;;;-1.10;99.90;;;;;;5023636;28;20222;-78
2021/12/26 01:05:11;;;;;;;4.32;2.30;;;-1.10;99.90;;;;;;5038068;28;20206;-78
2021/12/26 01:07:47;;;;;;;6.35;2.45;;;-1.20;99.90;;;;;;5037231;28;20213;-79
2021/12/26 01:10:16;;;;;;;3.47;2.22;;;-1.10;99.90;;;;;;5035844;28;20216;-79
2021/12/26 01:12:43;;;;;;;3.75;1.77;;;-1.20;99.90;;;;;;5040543;28;20221;-78
2021/12/26 01:15:14;;;;;;;3.95;1.70;;;-1.30;99.90;;;;;;5056689;28;20720;-79
2021/12/26 01:17:43;;;;;;;7.47;2.90;;;-1.30;99.90;;;;;;5046499;28;20230;-78
2021/12/26 01:20:13;;;;;;;3.95;2.13;;;-1.30;99.90;;;;;;5047430;28;20202;-79
2021/12/26 01:22:40;;;;;;;4.28;2.50;;;-1.30;99.90;;;;;;5035908;28;20730;-79
2021/12/26 01:25:08;;;;;;;4.03;2.40;;;-1.30;99.90;;;;;;5036880;28;20202;-78
2021/12/26 01:27:35;;;;;;;2.95;1.70;;;-1.30;99.90;;;;;;5036809;28;20236;-79
2021/12/26 01:30:03;;;;;;;3.85;2.10;;;-1.20;99.90;;;;;;5036482;28;20229;-77
2021/12/26 01:32:31;;;;;;;3.35;2.20;;;-1.30;99.90;;;;;;5036591;28;20212;-78
2021/12/26 01:34:58;;;;;;;4.32;2.20;;;-1.20;99.90;;;;;;5055831;28;20221;-78
2021/12/26 01:37:25;;;;;;;4.82;2.60;;;-1.20;99.90;;;;;;5039244;28;20204;-78
2021/12/26 01:39:52;;;;;;;3.22;2.22;;;-1.20;99.90;;;;;;5039803;28;20206;-78
2021/12/26 01:42:19;;;;;;;4.32;2.55;;;-1.30;99.90;;;;;;5053698;28;20198;-78
2021/12/26 01:44:48;;;;;;;3.45;2.13;;;-1.30;99.90;;;;;;5056279;28;20677;-78
2021/12/26 01:47:15;;;;;;;2.97;2.00;;;-1.30;99.90;;;;;;5046537;28;20218;-78
2021/12/26 01:49:43;;;;;;;3.65;2.00;;;-1.20;99.90;;;;;;5056025;28;20206;-78
2021/12/26 01:52:10;;;;;;;4.45;2.30;;;-1.20;99.90;;;;;;5046226;28;20213;-79
2021/12/26 01:54:43;;;;;;;3.22;1.92;;;-1.30;99.90;;;;;;5036737;28;20229;-78
2021/12/26 01:57:12;;;;;;;3.28;1.80;;;-1.40;99.90;;;;;;5036678;28;20258;-79
2021/12/26 01:59:39;;;;;;;4.90;2.60;;;-1.30;99.90;;;;;;5039901;28;20198;-79
2021/12/26 02:02:06;;;;;;;4.57;2.95;;;-1.40;99.90;;;;;;5037557;28;20198;-79
2021/12/26 02:04:33;;;;;;;4.50;2.38;;;-1.40;99.90;;;;;;5053865;28;20244;-79
2021/12/26 02:07:04;;;;;;;4.53;1.90;;;-1.40;99.90;;;;;;5037497;28;20209;-79
2021/12/26 02:09:31;;;;;;;6.38;2.70;;;-1.40;99.90;;;;;;5052749;28;20206;-79
2021/12/26 02:11:58;;;;;;;3.83;1.85;;;-1.40;99.90;;;;;;5035868;28;20205;-79
2021/12/26 02:14:25;;;;;;;4.72;1.90;;;-1.50;99.90;;;;;;5043192;28;20215;-79
2021/12/26 02:16:53;;;;;;;4.60;2.38;;;-1.50;99.90;;;;;;5036896;28;20212;-79
2021/12/26 02:19:20;;;;;;;6.95;2.95;;;-1.30;99.90;;;;;;5041174;28;20202;-79
2021/12/26 02:22:02;;;;;;;3.75;2.15;;;-1.30;99.90;;;;;;5036730;28;20213;-78
2021/12/26 02:24:33;;;;;;;5.70;2.83;;;-1.30;99.90;;;;;;5040966;28;20245;-79
2021/12/26 02:29:44;;;;;;;3.70;2.33;;;-1.30;99.90;;;;;;5046475;28;20213;-80
2021/12/26 02:32:11;;;;;;;5.82;2.55;;;-1.40;99.90;;;;;;5040351;28;20706;-79
2021/12/26 02:34:39;;;;;;;6.65;2.10;;;-1.30;99.90;;;;;;5035824;28;20226;-79
2021/12/26 02:37:07;;;;;;;4.95;2.67;;;-1.30;99.90;;;;;;5040025;28;20206;-78
2021/12/26 02:39:35;;;;;;;6.45;2.85;;;-1.30;99.90;;;;;;5036938;28;20638;-79
2021/12/26 02:42:02;;;;;;;4.00;1.80;;;-1.40;99.90;;;;;;5035557;28;20209;-78
2021/12/26 02:44:29;;;;;;;4.63;2.47;;;-1.40;99.90;;;;;;5040376;28;20225;-79
2021/12/26 02:46:56;;;;;;;4.80;1.75;;;-1.40;99.90;;;;;;5035470;28;20198;-79
2021/12/26 02:49:23;;;;;;;5.05;2.50;;;-1.30;99.90;;;;;;5041894;28;20217;-80
2021/12/26 02:51:51;;;;;;;4.82;2.10;;;-1.20;99.90;;;;;;5049312;28;20202;-79
2021/12/26 02:54:23;;;;;;;4.80;2.20;;;-1.20;99.90;;;;;;5039283;28;20301;-79
2021/12/26 02:56:49;;;;;;;3.50;2.50;;;-1.20;99.90;;;;;;5041760;28;20206;-78
2021/12/26 02:59:16;;;;;;;3.67;1.95;;;-1.20;99.90;;;;;;5035732;28;20193;-79
2021/12/26 03:01:43;;;;;;;3.72;1.90;;;-1.20;99.90;;;;;;5034709;28;20635;-79
2021/12/26 03:04:10;;;;;;;4.03;2.08;;;-1.20;99.90;;;;;;5045089;28;20225;-79
2021/12/26 03:06:44;;;;;;;3.25;2.22;;;-1.30;99.90;;;;;;5052902;28;20556;-79
2021/12/26 03:09:10;;;;;;;4.70;2.60;;;-1.30;99.90;;;;;;5035741;28;20733;-79
2021/12/26 03:11:39;;;;;;;3.50;2.00;;;-1.40;99.90;;;;;;5034089;28;20206;-79
2021/12/26 03:14:06;;;;;;;4.30;2.40;;;-1.40;99.90;;;;;;5042746;28;20225;-78
2021/12/26 03:16:34;;;;;;;3.55;1.83;;;-1.40;99.90;;;;;;5051563;28;20320;-79
2021/12/26 03:19:01;;;;;;;3.75;2.25;;;-1.40;99.90;;;;;;5034743;28;20213;-79
2021/12/26 03:21:28;;;;;;;4.30;2.35;;;-1.30;99.90;;;;;;5034169;28;20212;-78
2021/12/26 03:23:57;;;;;;;2.92;1.90;;;-1.30;99.90;;;;;;5039909;28;20586;-78
2021/12/26 03:26:23;;;;;;;4.45;2.08;;;-1.40;99.90;;;;;;5039968;28;20716;-79
2021/12/26 03:28:52;;;;;;;4.65;2.30;;;-1.30;99.90;;;;;;5037758;28;20440;-77
2021/12/26 03:31:18;;;;;;;4.32;2.78;;;-1.30;99.90;;;;;;5035479;28;20248;-78
2021/12/26 03:33:45;;;;;;;4.45;2.10;;;-1.30;99.90;;;;;;5033688;28;20218;-78
2021/12/26 03:36:12;;;;;;;3.35;1.90;;;-1.20;99.90;;;;;;5035370;28;20206;-79
2021/12/26 03:38:39;;;;;;;5.18;2.03;;;-1.20;99.90;;;;;;5034867;28;20216;-79
2021/12/26 03:41:06;;;;;;;3.78;2.25;;;-1.00;99.90;;;;;;5034882;28;20687;-78
2021/12/26 03:43:33;;;;;;;3.15;1.90;;;-1.10;99.90;;;;;;5023554;28;20228;-78
2021/12/26 03:46:02;;;;;;;3.40;2.30;;;-1.10;99.90;;;;;;5048556;28;20201;-78
2021/12/26 03:48:29;;;;;;;4.10;1.67;;;-1.10;99.90;;;;;;5044408;28;20222;-78
2021/12/26 03:50:57;;;;;;;3.95;2.45;;;-1.00;99.90;;;;;;5047179;28;20289;-78
2021/12/26 03:53:25;;;;;;;4.15;2.05;;;-1.00;99.90;;;;;;5033657;28;20226;-79
2021/12/26 03:55:53;;;;;;;4.43;2.90;;;-1.00;99.90;;;;;;5036750;28;20202;-78
2021/12/26 03:58:20;;;;;;;3.80;2.00;;;-1.10;99.90;;;;;;5033848;28;20268;-79
2021/12/26 04:00:51;;;;;;;4.13;2.53;;;-1.00;99.90;;;;;;5049267;28;20203;-78
2021/12/26 04:03:19;;;;;;;4.82;2.08;;;-1.10;99.90;;;;;;5039920;28;20233;-79
2021/12/26 04:05:46;;;;;;;3.33;1.92;;;-1.10;99.90;;;;;;5048445;28;20227;-79
2021/12/26 04:08:13;;;;;;;4.35;2.03;;;-1.10;99.90;;;;;;5034406;28;20218;-79
2021/12/26 04:10:40;;;;;;;3.53;1.90;;;-1.00;99.90;;;;;;5035657;28;20202;-78
2021/12/26 04:13:07;;;;;;;3.45;2.40;;;-1.10;99.90;;;;;;5031862;28;20224;-79
2021/12/26 04:15:34;;;;;;;3.50;1.80;;;-1.10;99.90;;;;;;5045771;28;20205;-79
2021/12/26 04:18:01;;;;;;;3.15;1.70;;;-1.10;99.90;;;;;;5037354;28;20212;-77
2021/12/26 04:20:30;;;;;;;4.55;2.25;;;-1.20;99.90;;;;;;5038293;28;20198;-78
2021/12/26 04:22:58;;;;;;;4.55;2.00;;;-1.20;99.90;;;;;;5032634;28;20222;-78
2021/12/26 04:25:27;;;;;;;4.72;1.92;;;-1.20;99.90;;;;;;5038504;28;20202;-79
2021/12/26 04:27:55;;;;;;;3.58;2.22;;;-1.10;99.90;;;;;;5037396;28;20234;-79
2021/12/26 04:30:22;;;;;;;4.22;2.30;;;-1.10;99.90;;;;;;5042131;28;20244;-79
2021/12/26 04:32:49;;;;;;;3.55;2.22;;;-1.00;99.90;;;;;;5036686;28;20615;-78
2021/12/26 04:35:17;;;;;;;3.30;2.05;;;-0.90;99.90;;;;;;5045303;28;20198;-78
2021/12/26 04:37:45;;;;;;;3.30;2.20;;;-1.00;99.90;;;;;;5039821;28;20209;-79
2021/12/26 04:40:14;;;;;;;3.70;1.88;;;-1.00;99.90;;;;;;5038669;28;20195;-79
2021/12/26 04:42:44;;;;;;;3.53;2.10;;;-0.90;99.90;;;;;;5057445;28;20225;-79
2021/12/26 04:45:11;;;;;;;3.97;1.95;;;-1.00;99.90;;;;;;5046667;28;20256;-79
2021/12/26 04:47:39;;;;;;;5.57;1.90;;;-0.90;99.90;;;;;;5046651;28;20217;-78
2021/12/26 04:50:09;;;;;;;4.93;2.00;;;-0.90;99.90;;;;;;5039897;28;20199;-78
2021/12/26 04:52:36;;;;;;;3.35;1.90;;;-1.00;99.90;;;;;;5027625;28;20277;-78
2021/12/26 04:55:05;;;;;;;5.80;2.55;;;-0.90;99.90;;;;;;5039529;28;20214;-79
2021/12/26 04:57:32;;;;;;;2.95;1.88;;;-1.10;99.90;;;;;;5038532;28;20203;-79
2021/12/26 04:59:59;;;;;;;3.55;1.70;;;-0.90;99.90;;;;;;5045475;28;20265;-78
2021/12/26 05:02:28;;;;;;;2.67;1.77;;;-0.90;99.90;;;;;;5046934;28;20624;-79
2021/12/26 05:04:55;;;;;;;3.85;2.03;;;-0.90;99.90;;;;;;5043076;28;20685;-78
2021/12/26 05:07:21;;;;;;;5.03;2.53;;;-0.90;99.90;;;;;;5040181;28;20208;-79
2021/12/26 05:09:48;;;;;;;5.90;2.30;;;-0.90;99.90;;;;;;5038394;28;20788;-79
2021/12/26 05:12:16;;;;;;;4.88;1.65;;;-0.90;99.90;;;;;;5036487;28;20208;-78
2021/12/26 05:14:43;;;;;;;3.35;1.92;;;-0.90;99.90;;;;;;5036410;28;20206;-78
2021/12/26 05:17:10;;;;;;;2.75;1.50;;;-0.90;99.90;;;;;;5037392;28;20298;-79
2021/12/26 05:19:37;;;;;;;4.88;2.28;;;-0.80;99.90;;;;;;5037682;28;20210;-78
2021/12/26 05:22:04;;;;;;;2.80;1.65;;;-0.80;99.90;;;;;;5035104;28;20204;-78
2021/12/26 05:24:31;;;;;;;3.40;1.92;;;-0.90;99.90;;;;;;5040460;28;20301;-79
2021/12/26 05:26:57;;;;;;;3.38;1.88;;;-0.90;99.90;;;;;;5041569;28;20580;-79
2021/12/26 05:29:26;;;;;;;3.50;1.95;;;-1.00;99.90;;;;;;5036975;28;20221;-79
2021/12/26 05:31:53;;;;;;;2.33;1.42;;;-1.00;99.90;;;;;;5036613;28;20202;-78
2021/12/26 05:34:20;;;;;;;4.47;2.15;;;-1.00;99.90;;;;;;5039039;28;20275;-79
2021/12/26 05:36:47;;;;;;;3.08;1.70;;;-1.00;99.90;;;;;;5039969;28;20575;-79
2021/12/26 05:39:14;;;;;;;3.35;1.60;;;-0.90;99.90;;;;;;5037884;28;20209;-78
2021/12/26 05:41:41;;;;;;;3.00;2.20;;;-0.90;99.90;;;;;;5048038;28;20198;-79
2021/12/26 05:44:09;;;;;;;2.40;1.40;;;-0.90;99.90;;;;;;5037033;28;20230;-79
2021/12/26 05:46:38;;;;;;;3.72;1.92;;;-0.90;99.90;;;;;;5048866;28;20202;-79
2021/12/26 05:49:05;;;;;;;3.78;2.05;;;-0.90;99.90;;;;;;5041013;28;20685;-78
2021/12/26 05:51:32;;;;;;;2.92;1.80;;;-0.90;99.90;;;;;;5044931;28;20213;-79
2021/12/26 05:53:59;;;;;;;3.95;2.50;;;-0.90;99.90;;;;;;5036445;28;20706;-79
2021/12/26 05:56:26;;;;;;;3.10;2.00;;;-1.00;99.90;;;;;;5038286;28;20210;-78
2021/12/26 05:58:52;;;;;;;3.67;2.25;;;-0.90;99.90;;;;;;5037519;28;20213;-78
2021/12/26 06:01:19;;;;;;;3.50;2.10;;;-0.80;99.90;;;;;;5043119;28;20213;-78
2021/12/26 06:03:47;;;;;;;2.80;1.50;;;-0.80;99.90;;;;;;5034608;28;20234;-79
2021/12/26 06:06:14;;;;;;;2.60;1.55;;;-0.80;99.90;;;;;;5041880;28;20209;-78
2021/12/26 06:08:41;;;;;;;3.33;2.00;;;-0.80;99.90;;;;;;5035498;28;20219;-78
2021/12/26 06:11:08;;;;;;;4.43;2.35;;;-0.80;99.90;;;;;;5033988;28;20201;-78
2021/12/26 06:13:35;;;;;;;4.28;2.60;;;-0.80;99.90;;;;;;5038064;28;20218;-78
2021/12/26 06:16:02;;;;;;;4.45;2.05;;;-0.80;99.90;;;;;;5035515;28;20206;-77
2021/12/26 06:18:29;;;;;;;3.70;2.17;;;-0.80;99.90;;;;;;5050878;28;20207;-78
2021/12/26 06:20:57;;;;;;;5.95;1.92;;;-0.70;99.90;;;;;;5034027;28;20580;-78
2021/12/26 06:23:24;;;;;;;3.75;2.00;;;-0.70;99.90;;;;;;5033347;28;20309;-78
2021/12/26 06:25:50;;;;;;;5.20;2.17;;;-0.70;99.90;;;;;;5034315;28;20575;-77
2021/12/26 06:28:17;;;;;;;3.83;2.10;;;-0.60;99.90;;;;;;5038687;28;20206;-78
2021/12/26 06:30:44;;;;;;;2.90;1.90;;;-0.70;99.90;;;;;;5034243;28;20206;-79
2021/12/26 06:33:11;;;;;;;3.80;2.10;;;-0.70;99.90;;;;;;5048615;28;20602;-77
2021/12/26 06:35:38;;;;;;;3.50;1.85;;;-0.60;99.90;;;;;;5044037;28;20201;-77
2021/12/26 06:38:06;;;;;;;3.70;1.98;;;-0.60;99.90;;;;;;5034257;28;20202;-78
2021/12/26 06:40:32;;;;;;;4.65;2.42;;;-0.60;99.90;;;;;;5033953;28;20199;-78
2021/12/26 06:42:59;;;;;;;4.95;2.25;;;-0.60;99.90;;;;;;5045899;28;20714;-78
2021/12/26 06:45:26;;;;;;;4.15;2.60;;;-0.60;99.90;;;;;;5044949;28;20302;-77
2021/12/26 06:47:55;;;;;;;3.47;2.28;;;-0.60;99.90;;;;;;5034511;28;20238;-78
2021/12/26 06:50:22;;;;;;;4.18;1.98;;;-0.60;99.90;;;;;;5041543;28;20289;-78
2021/12/26 06:52:49;;;;;;;3.20;1.90;;;-0.70;99.90;;;;;;5041042;28;20222;-79
2021/12/26 06:55:17;;;;;;;5.53;2.42;;;-0.60;99.90;;;;;;5041721;28;20602;-77
2021/12/26 06:57:45;;;;;;;4.40;2.47;;;-0.60;99.90;;;;;;5041051;28;20202;-78
2021/12/26 07:00:15;;;;;;;3.65;2.30;;;-0.50;99.90;;;;;;5040678;28;20193;-79
2021/12/26 07:02:43;;;;;;;3.88;2.30;;;-0.50;99.90;;;;;;5033913;28;20329;-79
2021/12/26 07:05:11;;;;;;;3.42;2.03;;;-0.40;99.90;;;;;;5032030;28;20207;-78
2021/12/26 07:07:38;;;;;;;4.10;2.40;;;-0.40;99.90;;;;;;5024207;28;20207;-77
2021/12/26 07:10:06;;;;;;;6.28;2.45;;;-0.40;99.90;;;;;;5026291;28;20599;-78
2021/12/26 07:12:34;;;;;;;4.45;2.53;;;-0.40;99.90;;;;;;5030776;28;20209;-78
2021/12/26 07:15:01;;;;;;;3.00;1.95;;;-0.30;99.90;;;;;;5046891;28;20205;-79
2021/12/26 07:17:28;;;;;;;3.67;1.85;;;-0.40;99.90;;;;;;5052483;28;20635;-78
2021/12/26 07:19:55;;;;;;;4.28;2.63;;;-0.40;99.90;;;;;;5036580;28;20639;-78
2021/12/26 07:22:21;;;;;;;3.65;2.17;;;-0.40;99.90;;;;;;5034708;28;20198;-78
2021/12/26 07:24:48;;;;;;;4.95;2.45;;;-0.40;99.90;;;;;;5035066;28;20211;-79
2021/12/26 07:27:15;;;;;;;4.03;2.33;;;-0.50;99.90;;;;;;5055705;28;20201;-79
2021/12/26 07:29:44;;;;;;;5.05;2.92;;;-0.40;99.90;;;;;;5035650;28;20224;-80
2021/12/26 07:32:12;;;;;;;5.00;2.70;;;-0.40;99.90;;;;;;5038258;28;20209;-80
2021/12/26 07:34:39;;;;;;;3.67;2.30;;;-0.30;99.90;;;;;;5034810;28;20321;-79
2021/12/26 07:37:07;;;;;;;4.63;2.47;;;-0.30;99.90;;;;;;5039882;28;20278;-79
2021/12/26 07:39:34;;;;;;;4.15;2.47;;;-0.30;99.90;;;;;;5034905;28;20685;-79
2021/12/26 07:42:01;;;;;;;3.70;2.25;;;-0.30;99.90;;;;;;5035217;28;20199;-80
2021/12/26 07:44:28;;;;;;;3.30;2.22;;;-0.40;99.90;;;;;;5042194;28;20218;-79
2021/12/26 07:46:56;;;;;;;4.80;3.00;;;-0.30;99.90;;;;;;5048446;28;20209;-79
2021/12/26 07:49:24;;;;;;;4.60;2.83;;;-0.20;99.90;;;;;;5042668;28;20622;-78
2021/12/26 07:51:51;;;;;;;4.70;2.47;;;-0.20;99.90;;;;;;5026634;28;20228;-79
2021/12/26 07:54:21;;;;;;;4.70;2.65;;;-0.30;99.90;;;;;;5029519;28;20241;-79
2021/12/26 07:56:48;;;;;;;4.93;2.70;;;-0.30;99.90;;;;;;5033236;28;20194;-79
2021/12/26 07:59:15;;;;;;;3.40;2.45;;;-0.20;99.90;;;;;;5034287;28;20283;-78
2021/12/26 08:01:42;;;;;;;4.65;2.72;;;-0.10;99.90;;;;;;5031467;28;20195;-78
2021/12/26 08:04:11;;;;;;;5.82;2.90;;;-0.20;99.90;;;;;;5031284;28;20842;-77
2021/12/26 08:06:38;;;;;;;5.40;3.40;;;-0.10;99.90;;;;;;5036035;28;20202;-78
2021/12/26 08:09:06;;;;;;;4.55;2.40;;;-0.10;99.90;;;;;;5037168;28;20592;-79
2021/12/26 08:11:33;;;;;;;3.83;2.35;;;-0.20;99.90;;;;;;5036652;28;20693;-79
2021/12/26 08:14:00;;;;;;;4.72;2.53;;;-0.20;99.90;;;;;;5038832;28;20650;-79
2021/12/26 08:16:28;;;;;;;4.82;2.05;;;-0.10;99.90;;;;;;5036775;28;20206;-78
2021/12/26 08:18:55;;;;;;;4.35;3.03;;;-0.10;99.90;;;;;;5035422;28;20208;-78
2021/12/26 08:21:23;;;;;;;5.20;3.15;;;-0.10;99.90;;;;;;5042088;28;20703;-79
2021/12/26 08:23:50;;;;;;;5.68;2.40;;;-0.10;99.90;;;;;;5028925;28;20233;-78
2021/12/26 08:26:17;;;;;;;4.25;2.30;;;-0.10;99.90;;;;;;5027332;28;20208;-78
2021/12/26 08:28:44;;;;;;;3.45;2.05;;;0.00;99.90;;;;;;5036438;28;20205;-79
2021/12/26 08:31:11;;;;;;;4.32;2.53;;;0.00;99.90;;;;;;5041340;28;20219;-79
2021/12/26 08:33:38;;;;;;;5.28;2.63;;;0.20;99.90;;;;;;5036383;28;20221;-79
2021/12/26 08:36:05;;;;;;;5.55;3.00;;;0.20;99.90;;;;;;5035479;28;20811;-79
2021/12/26 08:38:34;;;;;;;5.22;3.15;;;0.20;99.90;;;;;;5044430;28;20198;-79
2021/12/26 08:41:01;;;;;;;4.28;2.60;;;0.30;99.90;;;;;;5056424;28;20213;-79
2021/12/26 08:43:30;;;;;;;5.18;2.60;;;0.20;99.90;;;;;;5050882;28;20708;-79
2021/12/26 08:45:57;;;;;;;5.32;3.58;;;0.10;99.90;;;;;;5036870;28;20214;-79
2021/12/26 08:48:25;;;;;;;3.78;2.67;;;0.10;99.90;;;;;;5040282;28;20209;-79
2021/12/26 08:50:55;;;;;;;5.18;2.40;;;0.20;99.90;;;;;;5054610;28;20320;-79
2021/12/26 08:53:22;;;;;;;5.13;3.40;;;0.30;99.90;;;;;;5043862;28;20242;-79
2021/12/26 08:55:51;;;;;;;4.20;2.90;;;0.40;99.90;;;;;;5036038;28;20211;-80
2021/12/26 08:58:18;;;;;;;5.85;3.40;;;0.40;99.90;;;;;;5036312;28;20216;-79
2021/12/26 09:00:45;;;;;;;4.95;3.40;;;0.40;99.90;;;;;;5036038;28;20228;-79
2021/12/26 09:03:12;;;;;;;4.80;3.15;;;0.50;99.90;;;;;;5054477;28;20871;-79
2021/12/26 09:05:38;;;;;;;5.28;2.78;;;0.60;99.90;;;;;;5050244;28;20204;-79
2021/12/26 09:08:10;;;;;;;5.18;2.92;;;0.60;99.90;;;;;;5033692;28;20208;-78
2021/12/26 09:10:37;;;;;;;6.18;3.17;;;0.50;99.90;;;;;;5037438;28;20246;-78
2021/12/26 09:13:05;;;;;;;4.65;3.00;;;0.70;99.90;;;;;;5058436;28;20229;-79
2021/12/26 09:15:32;;;;;;;5.00;3.28;;;0.80;99.90;;;;;;5054571;28;20298;-78
2021/12/26 09:17:59;;;;;;;5.22;3.30;;;0.70;99.90;;;;;;5038933;28;20209;-79
2021/12/26 09:20:27;;;;;;;4.30;2.95;;;0.90;99.90;;;;;;5041593;28;20206;-79
2021/12/26 09:22:54;;;;;;;4.53;2.70;;;0.90;99.90;;;;;;5055122;28;20232;-79
2021/12/26 09:25:21;;;;;;;4.60;3.28;;;1.00;99.90;;;;;;5043647;28;20197;-79
2021/12/26 09:27:48;;;;;;;5.25;2.95;;;1.00;99.90;;;;;;5050226;28;20215;-80
2021/12/26 09:30:16;;;;;;;4.25;2.95;;;0.90;99.90;;;;;;5041398;28;20236;-79
2021/12/26 09:32:44;;;;;;;6.32;4.13;;;1.00;99.90;;;;;;5044710;28;20224;-80
2021/12/26 09:35:12;;;;;;;4.72;2.92;;;1.10;99.90;;;;;;5052918;28;20282;-80
2021/12/26 09:37:39;;;;;;;7.18;4.10;;;1.20;99.90;;;;;;5045079;28;20213;-80
2021/12/26 09:40:09;;;;;;;5.97;3.65;;;1.30;99.90;;;;;;5041974;28;20205;-80
2021/12/26 09:42:37;;;;;;;6.03;3.40;;;1.20;99.90;;;;;;5039789;28;20730;-80
2021/12/26 09:45:05;;;;;;;10.50;4.15;;;1.30;99.90;;;;;;5050516;28;20205;-83
2021/12/26 09:47:33;;;;;;;5.05;3.17;;;1.30;99.90;;;;;;5052235;28;20557;-80
2021/12/26 09:50:01;;;;;;;5.22;3.67;;;1.30;99.90;;;;;;5022997;28;20229;-78
2021/12/26 09:52:28;;;;;;;4.75;3.55;;;1.50;99.90;;;;;;5030374;28;20202;-80
2021/12/26 09:54:55;;;;;;;4.60;3.30;;;1.40;99.90;;;;;;5043762;28;20265;-80
2021/12/26 09:57:24;;;;;;;7.68;3.45;;;1.60;99.90;;;;;;5048975;28;20202;-81
2021/12/26 09:59:51;;;;;;;6.10;3.17;;;1.70;99.90;;;;;;5044979;28;20202;-80
2021/12/26 10:02:19;;;;;;;5.75;3.97;;;1.80;99.90;;;;;;5048308;28;20208;-78
2021/12/26 10:04:49;;;;;;;7.25;3.83;;;1.90;99.90;;;;;;5045560;28;20202;-78
2021/12/26 10:07:17;;;;;;;6.93;3.97;;;1.80;99.90;;;;;;5049105;28;20194;-81
2021/12/26 10:09:46;;;;;;;6.47;3.90;;;1.80;99.90;;;;;;5044318;28;20309;-80
2021/12/26 10:12:15;;;;;;;6.13;3.95;;;1.90;99.90;;;;;;5032796;28;20234;-80
2021/12/26 10:14:43;;;;;;;6.60;4.15;;;1.90;99.90;;;;;;5040348;28;20199;-80
2021/12/26 10:17:12;;;;;;;6.82;3.88;;;2.10;99.90;;;;;;5035707;28;20724;-80
2021/12/26 10:19:41;;;;;;;6.90;4.05;;;2.40;99.90;;;;;;5042561;28;20205;-80
2021/12/26 10:22:10;;;;;;;5.82;3.78;;;2.60;99.90;;;;;;5028113;28;20220;-80
2021/12/26 10:24:39;;;;;;;5.57;3.95;;;2.80;99.90;;;;;;5034167;28;20800;-80
2021/12/26 10:27:09;;;;;;;7.82;3.53;;;2.80;99.90;;;;;;5028989;28;20208;-80
2021/12/26 10:29:38;;;;;;;7.20;4.10;;;2.90;99.90;;;;;;5041944;28;20206;-80
2021/12/26 10:32:08;;;;;;;5.43;3.70;;;2.90;99.90;;;;;;5049112;28;20205;-80
2021/12/26 10:34:40;;;;;;;5.55;3.72;;;2.90;99.90;;;;;;5027019;28;20219;-80
2021/12/26 10:37:10;;;;;;;7.77;4.60;;;3.00;99.90;;;;;;5037464;28;20198;-80
2021/12/26 10:39:40;;;;;;;7.97;4.20;;;3.10;99.90;;;;;;5039526;28;20449;-80
2021/12/26 10:42:10;;;;;;;7.75;4.38;;;3.30;99.90;;;;;;5026840;28;20655;-80
2021/12/26 10:44:41;;;;;;;5.37;3.87;;;3.50;99.90;;;;;;5032345;28;20269;-79
2021/12/26 10:47:11;;;;;;;5.80;3.77;;;3.70;99.90;;;;;;5031398;28;20453;-80
2021/12/26 10:49:41;;;;;;;5.57;4.10;;;4.00;99.90;;;;;;5022500;28;20468;-79
2021/12/26 10:52:22;;;;;;;9.60;4.70;;;4.00;99.90;;;;;;5027418;28;20541;-79
2021/12/26 10:54:51;;;;;;;6.37;4.37;;;3.90;99.90;;;;;;5030592;28;20460;-80
2021/12/26 10:57:22;;;;;;;6.30;4.60;;;4.30;99.90;;;;;;5034516;28;20457;-79
2021/12/26 11:00:01;;;;;;;7.27;4.53;;;4.20;99.90;;;;;;5031732;28;20453;-79
2021/12/26 11:02:30;;;;;;;7.20;4.27;;;4.00;99.90;;;;;;5037188;28;20483;-79
2021/12/26 11:05:02;;;;;;;6.87;4.10;;;4.10;99.90;;;;;;5020169;28;20537;-80
2021/12/26 11:07:39;;;;;;;8.77;4.43;;;3.90;99.90;;;;;;5033833;28;20467;-79
2021/12/26 11:10:10;;;;;;;8.00;4.63;;;3.90;99.90;;;;;;5041337;28;21061;-78
2021/12/26 11:12:44;;;;;;;6.60;4.50;;;3.80;99.90;;;;;;5040805;28;20523;-80
2021/12/26 11:15:12;;;;;;;6.80;4.57;;;4.20;99.90;;;;;;5040686;28;20452;-80
2021/12/26 11:17:44;;;;;;;6.93;5.00;;;4.10;99.90;;;;;;5040643;28;20448;-79
2021/12/26 11:20:23;;;;;;;6.70;4.93;;;4.10;99.90;;;;;;5041425;28;20853;-80
2021/12/26 11:22:51;;;;;;;5.90;4.73;;;4.10;99.90;;;;;;5041488;28;20483;-80
2021/12/26 11:25:18;;;;;;;7.20;4.40;;;3.90;99.90;;;;;;5041160;28;20544;-80
2021/12/26 11:27:45;;;;;;;7.50;4.47;;;3.90;99.90;;;;;;5040975;28;20456;-80
2021/12/26 11:30:12;;;;;;;7.40;4.63;;;3.80;99.90;;;;;;5033005;28;20496;-79
2021/12/26 11:32:40;;;;;;;6.47;4.90;;;3.70;99.90;;;;;;5029461;28;20540;-80
2021/12/26 11:35:08;;;;;;;6.20;4.30;;;3.60;99.90;;;;;;5042664;28;20453;-80
2021/12/26 11:37:36;;;;;;;7.43;5.07;;;3.50;99.90;;;;;;5037292;28;20461;-80
2021/12/26 11:40:08;;;;;;;13.57;5.97;;;3.30;99.90;;;;;;5041274;28;20536;-80
2021/12/26 11:42:55;;;;;;;7.87;5.00;;;3.20;99.90;;;;;;5040516;28;20485;-80
2021/12/26 11:45:30;;;;;;;7.70;5.37;;;3.20;99.90;;;;;;5041451;28;20461;-80
2021/12/26 11:48:21;;;;;;;7.47;4.97;;;3.30;99.90;;;;;;5041921;28;20853;-80
2021/12/26 11:51:03;;;;;;;7.00;4.80;;;3.20;99.90;;;;;;5041629;28;20912;-80
2021/12/26 11:53:48;;;;;;;8.27;5.23;;;3.20;99.90;;;;;;5042912;28;20483;-79
2021/12/26 11:56:30;;;;;;;10.90;5.83;;;3.20;99.90;;;;;;5042464;28;20455;-81
2021/12/26 11:59:13;;;;;;;10.40;5.80;;;3.10;99.90;;;;;;5042933;28;20456;-81
2021/12/26 12:01:43;;;;;;;8.57;4.90;;;3.10;99.90;;;;;;5049897;28;20447;-79
2021/12/26 12:04:17;;;;;;;6.43;5.03;;;3.20;99.90;;;;;;5062468;28;20486;-80
2021/12/26 12:06:46;;;;;;;7.93;5.07;;;3.40;99.90;;;;;;5054566;28;20639;-80
2021/12/26 12:09:29;;;;;;;11.20;5.33;;;3.50;99.90;;;;;;5043793;28;20459;-80
2021/12/26 12:12:04;;;;;;;8.60;5.63;;;3.60;99.90;;;;;;5041285;28;20484;-80
2021/12/26 12:14:53;;;;;;;8.80;5.50;;;3.60;99.90;;;;;;5044207;28;20555;-78
2021/12/26 12:17:23;;;;;;;7.23;5.50;;;3.70;99.90;;;;;;5041277;28;20886;-80
2021/12/26 12:20:17;;;;;;;8.60;6.20;;;3.80;99.90;;;;;;5057588;28;20945;-79
2021/12/26 12:23:21;;;;;;;8.23;5.73;;;3.80;99.90;;;;;;5030565;28;20468;-79
2021/12/26 12:25:53;;;;;;;6.73;4.53;;;3.60;99.90;;;;;;5061125;28;20446;-80
2021/12/26 12:28:28;;;;;;;9.90;6.00;;;3.60;99.90;;;;;;5035627;28;20461;-79
2021/12/26 12:30:57;;;;;;;8.10;4.97;;;3.60;99.90;;;;;;5040599;28;20580;-81
2021/12/26 12:33:29;;;;;;;10.20;5.77;;;3.60;99.90;;;;;;5025902;28;20507;-81
2021/12/26 12:35:59;;;;;;;8.23;5.60;;;3.50;99.90;;;;;;5023325;28;20457;-80
2021/12/26 12:38:30;;;;;;;10.10;6.67;;;3.50;99.90;;;;;;5043115;28;20857;-80
2021/12/26 12:40:59;;;;;;;8.63;5.40;;;3.90;99.90;;;;;;5036848;28;20452;-78
2021/12/26 12:43:29;;;;;;;7.93;5.70;;;3.70;99.90;;;;;;5033779;28;20479;-79
2021/12/26 12:46:09;;;;;;;9.30;6.03;;;3.70;99.90;;;;;;5039474;28;20452;-80
2021/12/26 12:48:44;;;;;;;6.97;5.10;;;3.60;99.90;;;;;;5030334;28;20452;-80
2021/12/26 12:51:42;;;;;;;8.13;5.77;;;3.60;99.90;;;;;;5034180;28;20487;-80
2021/12/26 12:54:22;;;;;;;7.87;5.80;;;3.50;99.90;;;;;;5030231;28;20895;-79
2021/12/26 12:56:50;;;;;;;7.90;5.50;;;3.40;99.90;;;;;;5039394;28;20466;-80
2021/12/26 12:59:43;;;;;;;9.50;5.77;;;3.40;99.90;;;;;;5047942;28;20552;-79
2021/12/26 13:02:26;;;;;;;10.05;6.65;;;3.50;99.90;;;;;;5033164;28;20472;-80